• Join FlightAware (Why Join?)
  • Login
  • US Flag 
04:00AM EDT


 

Airport Tracker/Info


-or-


 

Live Flight TrackerFlight Track Log ✈ CTL13 ✈ 05-Jul-2013 ✈ KBKL - KEYE

Flight Track Log - Related Links

Times and Time Zones

All times are in EDT time to prevent confusion due to time zone crossing. See the CTL13 flight status page for this flight to view local times or setup timezone preferences in your user account.

Time Position Orientation Groundspeed Altitude Reporting Facility
EDT Latitude Longitude Course Direction KTS MPH feet Rate Location/Type
06:41PM 41.5083 -81.7061 326° Northwest 132 152 1,000  Level Cleveland Center
06:41PM 41.5269 -81.7231 326° Northwest 130 150 1,500 1,200 Climbing Cleveland Center
06:43PM 41.5603 -81.7347 345° North 121 139 3,000 1,200 Climbing Cleveland Center
06:44PM 41.5661 -81.7653 284° West 100 115 4,100 840 Climbing Cleveland Center
06:45PM 41.5492 -81.8039 240° Southwest 126 145 4,900 840 Climbing Cleveland Center
06:46PM 41.5319 -81.8508 244° Southwest 122 140 5,800 840 Climbing Cleveland Center
06:47PM 41.5167 -81.8919 244° Southwest 120 138 6,700 840 Climbing Cleveland Center
06:48PM 41.4975 -81.9361 240° Southwest 120 138 7,700 600 Climbing Cleveland Center
06:49PM 41.4803 -81.9828 244° Southwest 140 161 8,100 180 Climbing Cleveland Center
06:50PM 41.4608 -82.0294 241° Southwest 163 188 8,100  Level Cleveland Center
06:51PM 41.4436 -82.0761 244° Southwest 161 185 8,100 -60 Level Cleveland Center
06:52PM 41.4200 -82.1339 241° Southwest 162 186 8,000 -60 Descending Cleveland Center
06:53PM 41.4067 -82.1861 251° West 162 186 8,000  Level Cleveland Center
06:54PM 41.3997 -82.2439 261° West 160 184 8,000  Level Cleveland Center
06:55PM 41.3714 -82.3181 243° Southwest 159 183 8,000  Level Indianapolis Center
06:56PM 41.3508 -82.3703 242° Southwest 158 182 8,000  Level Indianapolis Center
06:57PM 41.3267 -82.4311 242° Southwest 159 183 8,000  Level Indianapolis Center
06:58PM 41.3072 -82.4831 244° Southwest 157 181 8,000  Level Indianapolis Center
06:59PM 41.2864 -82.5350 242° Southwest 158 182 8,000  Level Indianapolis Center
07:01PM 41.2650 -82.5864 241° Southwest 157 181 8,000  Level Indianapolis Center
07:02PM 41.2458 -82.6381 244° Southwest 156 180 8,000  Level Indianapolis Center
07:03PM 41.2256 -82.6906 243° Southwest 158 182 8,000  Level Indianapolis Center
07:04PM 41.2044 -82.7425 242° Southwest 159 183 8,000  Level Indianapolis Center
07:05PM 41.1842 -82.7947 243° Southwest 159 183 8,000  Level Indianapolis Center
07:06PM 41.1617 -82.8461 240° Southwest 160 184 8,100  Climbing Indianapolis Center
07:07PM 41.1414 -82.8983 243° Southwest 159 183 8,100  Level Indianapolis Center
07:08PM 41.1203 -82.9489 241° Southwest 157 181 8,100  Level Indianapolis Center
07:09PM 41.0994 -83.0003 242° Southwest 158 182 8,100  Level Indianapolis Center
07:10PM 41.0794 -83.0522 243° Southwest 157 181 8,100  Level Indianapolis Center
07:11PM 41.0544 -83.1128 241° Southwest 159 183 8,100  Level Indianapolis Center
07:12PM 41.0342 -83.1642 242° Southwest 158 182 8,100  Level Indianapolis Center
07:13PM 41.0131 -83.2161 242° Southwest 159 183 8,100  Level Indianapolis Center
07:14PM 40.9919 -83.2678 242° Southwest 159 183 8,100  Level Indianapolis Center
07:15PM 40.9719 -83.3206 243° Southwest 159 183 8,100  Level Indianapolis Center
07:16PM 40.9506 -83.3706 240° Southwest 157 181 8,100  Level Indianapolis Center
07:17PM 40.9300 -83.4228 242° Southwest 159 183 8,100  Level Indianapolis Center
07:18PM 40.9081 -83.4733 240° Southwest 157 181 8,100  Level Indianapolis Center
07:19PM 40.8872 -83.5239 241° Southwest 159 183 8,100  Level Indianapolis Center
07:20PM 40.8661 -83.5778 243° Southwest 162 186 8,100  Level Indianapolis Center
07:21PM 40.8450 -83.6292 242° Southwest 161 185 8,100  Level Indianapolis Center
07:22PM 40.8231 -83.6803 240° Southwest 159 183 8,100  Level Indianapolis Center
07:23PM 40.8036 -83.7325 244° Southwest 159 183 8,100  Level Indianapolis Center
07:24PM 40.7781 -83.7936 241° Southwest 162 186 8,100  Level Indianapolis Center
07:25PM 40.7583 -83.8453 243° Southwest 159 183 8,100  Level Indianapolis Center
07:26PM 40.7367 -83.8961 241° Southwest 158 182 8,100  Level Indianapolis Center
07:27PM 40.7144 -83.9467 240° Southwest 159 183 8,100  Level Indianapolis Center
07:28PM 40.6917 -83.9956 238° Southwest 158 182 8,100  Level Indianapolis Center
07:29PM 40.6669 -84.0444 236° Southwest 159 183 8,100  Level Indianapolis Center
07:30PM 40.6408 -84.0925 234° Southwest 160 184 8,100  Level Indianapolis Center
07:31PM 40.6158 -84.1406 236° Southwest 159 183 8,100 -60 Level Indianapolis Center
07:32PM 40.5903 -84.1881 235° Southwest 159 183 8,000 -60 Descending Indianapolis Center
07:33PM 40.5656 -84.2372 237° Southwest 159 183 8,000  Level Indianapolis Center
07:34PM 40.5403 -84.2853 235° Southwest 159 183 8,000  Level Indianapolis Center
07:35PM 40.5075 -84.3467 235° Southwest 157 181 8,000  Level Indianapolis Center
07:36PM 40.4897 -84.3808 236° Southwest 158 182 8,000  Level Indianapolis Center
07:37PM 40.4636 -84.4286 234° Southwest 160 184 8,000  Level Indianapolis Center
07:38PM 40.4386 -84.4764 236° Southwest 159 183 8,000  Level Indianapolis Center
07:39PM 40.4131 -84.5231 234° Southwest 157 181 8,100  Climbing Indianapolis Center
07:40PM 40.3836 -84.5789 235° Southwest 158 182 8,000 -60 Descending Indianapolis Center
07:41PM 40.3586 -84.6272 236° Southwest 158 182 8,000  Level Indianapolis Center
07:42PM 40.3328 -84.6753 235° Southwest 159 183 8,000  Level Indianapolis Center
07:44PM 40.3039 -84.7303 235° Southwest 157 181 8,000  Level Indianapolis Center
07:44PM 40.2825 -84.7689 234° Southwest 158 182 8,000  Level Indianapolis Center
07:45PM 40.2578 -84.8147 235° Southwest 155 178 8,000  Level Indianapolis Center
07:46PM 40.2317 -84.8625 234° Southwest 159 183 8,000  Level Indianapolis Center
07:47PM 40.2044 -84.9114 234° Southwest 156 180 8,100  Climbing Indianapolis Center
07:48PM 40.1803 -84.9572 235° Southwest 155 178 8,000 -60 Descending Indianapolis Center
07:50PM 40.1544 -85.0050 235° Southwest 159 183 8,000  Level Indianapolis Center
07:51PM 40.1303 -85.0514 236° Southwest 156 180 8,000  Level Indianapolis Center
07:52PM 40.1033 -85.0983 233° Southwest 160 184 8,000  Level Indianapolis Center
07:53PM 40.0783 -85.1442 235° Southwest 157 181 8,000  Level Indianapolis Center
07:54PM 40.0539 -85.1897 235° Southwest 155 178 8,100 -180 Climbing Indianapolis Center
07:55PM 40.0436 -85.2481 257° West 162 186 7,700 -420 Descending Indianapolis Center
07:56PM 40.0333 -85.3094 258° West 171 197 7,300 -540 Descending Indianapolis Center
07:57PM 40.0206 -85.3725 255° West 179 206 6,700 -660 Descending Indianapolis Center
07:58PM 40.0053 -85.4483 255° West 182 209 6,000 -600 Descending Indianapolis Center
07:59PM 39.9925 -85.5119 255° West 182 209 5,500 -540 Descending Indianapolis Center
08:00PM 39.9806 -85.5744 256° West 180 207 5,000 -540 Descending Indianapolis Center
08:01PM 39.9675 -85.6381 255° West 181 208 4,500 -480 Descending Indianapolis Center
08:02PM 39.9547 -85.7019 255° West 182 209 4,100 -300 Descending Indianapolis Center
08:03PM 39.9419 -85.7644 255° West 181 208 4,000 -60 Descending Indianapolis Center
08:04PM 39.9300 -85.8231 255° West 176 203 4,000 -180 Level Indianapolis Center
08:05PM 39.9203 -85.8833 258° West 172 198 3,700 -360 Descending Indianapolis Center
08:06PM 39.9175 -85.9503 267° West 178 205 3,300 -480 Descending Indianapolis Center
08:07PM 39.9150 -86.0292 268° West 182 209 2,800 -420 Descending Indianapolis Center
08:08PM 39.8961 -86.0881 247° West 180 207 2,500 -240 Descending Indianapolis Center
08:09PM 39.8792 -86.1411 247° West 177 204 2,400 -120 Descending Indianapolis Center